Time;durP1;ratioP1;P1;durP2;ratioP2;P2;SDS_P1;SDS_P2;PMS_P1;PMS_P2;Temp;Humidity;BMP_temperature;BMP_pressure;BME280_temperature;BME280_humidity;BME280_pressure;Samples;Min_cycle;Max_cycle;Signal;HPM_P1;HPM_P2
2022/12/05 00:01:20;;;;;;;18.42;3.03;;;;;;;;;;4992783;28;20112;-44
2022/12/05 00:03:48;;;;;;;29.38;3.38;;;;;;;;;;4992803;28;20065;-44
2022/12/05 00:06:15;;;;;;;71.28;7.30;;;;;;;;;;4983109;28;20027;-44
2022/12/05 00:08:42;;;;;;;79.00;8.95;;;;;;;;;;4986853;28;20105;-45
2022/12/05 00:11:13;;;;;;;69.25;8.25;;;;;;;;;;4975794;28;20031;-50
2022/12/05 00:13:41;;;;;;;53.97;7.15;;;;;;;;;;4973659;28;20481;-45
2022/12/05 00:16:09;;;;;;;91.68;8.95;;;;;;;;;;4980360;28;20030;-47
2022/12/05 00:18:36;;;;;;;85.28;8.93;;;;;;;;;;4986158;28;20027;-45
2022/12/05 00:21:03;;;;;;;79.03;8.55;;;;;;;;;;5006390;28;20030;-47
2022/12/05 00:23:30;;;;;;;46.20;5.22;;;;;;;;;;4991582;28;20065;-44
2022/12/05 00:25:57;;;;;;;97.65;8.95;;;;;;;;;;5005667;28;20054;-46
2022/12/05 00:28:24;;;;;;;47.55;5.75;;;;;;;;;;4990687;28;20489;-45
2022/12/05 00:30:51;;;;;;;48.15;6.43;;;;;;;;;;4990837;28;20042;-45
2022/12/05 00:33:18;;;;;;;65.88;7.95;;;;;;;;;;4985582;28;20062;-46
2022/12/05 00:35:45;;;;;;;88.38;11.57;;;;;;;;;;4984634;28;20478;-45
2022/12/05 00:38:12;;;;;;;215.85;22.88;;;;;;;;;;4995468;28;20036;-45
2022/12/05 00:40:39;;;;;;;370.10;34.97;;;;;;;;;;4995104;28;20117;-44
2022/12/05 00:43:06;;;;;;;248.85;29.33;;;;;;;;;;4987308;28;20022;-45
2022/12/05 00:45:33;;;;;;;332.83;36.72;;;;;;;;;;4988821;28;20033;-44
2022/12/05 00:48:00;;;;;;;361.77;39.47;;;;;;;;;;4987743;28;20035;-48
2022/12/05 00:50:27;;;;;;;380.77;42.17;;;;;;;;;;4996568;28;20587;-46
2022/12/05 00:52:54;;;;;;;355.60;37.83;;;;;;;;;;4997449;28;20034;-46
2022/12/05 00:55:21;;;;;;;377.65;42.88;;;;;;;;;;4994800;28;20081;-45
2022/12/05 00:58:08;;;;;;;312.10;37.58;;;;;;;;;;4985176;28;20092;-49
2022/12/05 01:00:35;;;;;;;288.90;34.53;;;;;;;;;;4983433;28;20085;-45
2022/12/05 01:03:02;;;;;;;329.83;37.50;;;;;;;;;;4983187;28;20031;-46
2022/12/05 01:05:29;;;;;;;390.73;47.47;;;;;;;;;;4984619;28;20547;-45
2022/12/05 01:07:56;;;;;;;332.95;40.78;;;;;;;;;;5015249;28;20030;-45
2022/12/05 01:10:23;;;;;;;311.25;38.90;;;;;;;;;;4990761;28;20035;-47
2022/12/05 01:12:50;;;;;;;303.75;41.38;;;;;;;;;;4988459;28;20074;-44
2022/12/05 01:15:17;;;;;;;345.27;44.45;;;;;;;;;;4994444;28;20053;-46
2022/12/05 01:17:44;;;;;;;344.08;47.42;;;;;;;;;;4989384;28;20497;-50
2022/12/05 01:20:11;;;;;;;427.55;57.60;;;;;;;;;;5018083;28;20448;-46
2022/12/05 01:22:38;;;;;;;320.92;50.42;;;;;;;;;;4986815;28;20088;-43
2022/12/05 01:25:05;;;;;;;326.02;50.40;;;;;;;;;;4987497;28;20104;-44
2022/12/05 01:27:32;;;;;;;329.80;51.28;;;;;;;;;;4986565;28;20413;-45
2022/12/05 01:29:59;;;;;;;370.48;53.83;;;;;;;;;;4988582;28;20044;-45
2022/12/05 01:32:26;;;;;;;373.55;58.50;;;;;;;;;;4983542;28;20050;-49
2022/12/05 01:34:54;;;;;;;368.77;54.08;;;;;;;;;;4976562;28;20030;-44
2022/12/05 01:37:21;;;;;;;395.60;55.53;;;;;;;;;;4999844;28;20064;-44
2022/12/05 01:39:49;;;;;;;346.50;50.55;;;;;;;;;;5017707;28;20033;-45
2022/12/05 01:42:16;;;;;;;402.27;51.88;;;;;;;;;;5017294;28;20033;-46
2022/12/05 01:44:43;;;;;;;417.75;50.92;;;;;;;;;;5017232;28;20117;-44
2022/12/05 01:47:10;;;;;;;404.23;49.58;;;;;;;;;;5015773;28;20038;-44
2022/12/05 01:49:39;;;;;;;361.67;45.25;;;;;;;;;;5014222;28;20014;-44
2022/12/05 01:52:21;;;;;;;338.30;45.15;;;;;;;;;;5014100;28;20503;-46
2022/12/05 01:54:49;;;;;;;247.25;36.05;;;;;;;;;;5013535;28;20076;-46
2022/12/05 01:57:17;;;;;;;261.52;31.77;;;;;;;;;;5004482;28;20031;-46
2022/12/05 01:59:49;;;;;;;313.55;36.42;;;;;;;;;;4982120;28;20022;-47
2022/12/05 02:02:16;;;;;;;262.85;31.63;;;;;;;;;;5014508;28;20032;-44
2022/12/05 02:05:04;;;;;;;247.57;31.63;;;;;;;;;;4984566;28;20082;-46
2022/12/05 02:07:32;;;;;;;166.02;23.38;;;;;;;;;;4994246;28;20049;-44
2022/12/05 02:09:59;;;;;;;162.25;22.55;;;;;;;;;;4984025;28;20033;-45
2022/12/05 02:12:26;;;;;;;145.73;19.08;;;;;;;;;;4983972;28;20034;-44
2022/12/05 02:14:56;;;;;;;121.18;17.75;;;;;;;;;;4983061;28;20112;-48
2022/12/05 02:17:42;;;;;;;100.32;13.07;;;;;;;;;;4992944;28;20072;-43
2022/12/05 02:20:27;;;;;;;93.15;14.32;;;;;;;;;;4990497;28;20789;-54
2022/12/05 02:23:11;;;;;;;84.70;11.02;;;;;;;;;;4990549;28;20105;-47
2022/12/05 02:26:13;;;;;;;74.70;11.15;;;;;;;;;;4991371;28;20038;-43
2022/12/05 02:28:49;;;;;;;94.68;12.68;;;;;;;;;;4951652;28;20165;-44
2022/12/05 02:31:19;;;;;;;74.45;10.48;;;;;;;;;;4984991;28;20045;-46
2022/12/05 02:33:45;;;;;;;73.97;9.20;;;;;;;;;;4992603;28;20022;-44
2022/12/05 02:36:23;;;;;;;52.63;8.57;;;;;;;;;;5007127;28;20039;-45
2022/12/05 02:38:50;;;;;;;66.80;9.10;;;;;;;;;;4974399;28;20023;-44
2022/12/05 02:41:37;;;;;;;65.03;9.25;;;;;;;;;;4990717;28;20038;-44
2022/12/05 02:44:23;;;;;;;76.20;10.50;;;;;;;;;;4992652;28;20112;-48
2022/12/05 02:46:52;;;;;;;63.17;9.20;;;;;;;;;;4991212;28;20041;-44
2022/12/05 02:49:24;;;;;;;55.70;7.00;;;;;;;;;;4992759;28;20512;-45
2022/12/05 02:51:57;;;;;;;49.60;6.32;;;;;;;;;;4992679;28;20026;-44
2022/12/05 02:54:26;;;;;;;62.20;8.30;;;;;;;;;;4982065;28;20405;-43
2022/12/05 02:56:54;;;;;;;55.60;7.18;;;;;;;;;;4982768;28;20033;-44
2022/12/05 02:59:21;;;;;;;66.40;8.73;;;;;;;;;;4982542;28;20864;-44
2022/12/05 03:01:48;;;;;;;52.78;6.68;;;;;;;;;;4982535;28;20030;-42
2022/12/05 03:04:16;;;;;;;65.03;7.43;;;;;;;;;;4981931;28;20364;-46
2022/12/05 03:06:46;;;;;;;60.30;7.80;;;;;;;;;;4983596;28;20065;-46
2022/12/05 03:09:35;;;;;;;63.58;8.43;;;;;;;;;;4982945;28;20041;-44
2022/12/05 03:12:02;;;;;;;58.55;7.07;;;;;;;;;;4991854;28;20030;-48
2022/12/05 03:14:43;;;;;;;47.80;6.35;;;;;;;;;;4992561;28;20030;-43
2022/12/05 03:17:13;;;;;;;48.65;7.40;;;;;;;;;;4992949;28;20034;-43
2022/12/05 03:19:48;;;;;;;38.53;5.50;;;;;;;;;;4993507;28;20018;-43
2022/12/05 03:22:37;;;;;;;44.13;5.30;;;;;;;;;;4993561;28;20473;-44
2022/12/05 03:25:05;;;;;;;29.52;4.45;;;;;;;;;;4993482;28;20038;-43
2022/12/05 03:27:44;;;;;;;38.67;4.35;;;;;;;;;;4993426;28;20038;-44
2022/12/05 03:30:13;;;;;;;92.10;9.60;;;;;;;;;;4993301;28;20108;-45
2022/12/05 03:32:45;;;;;;;64.32;9.00;;;;;;;;;;4993324;28;20058;-43
2022/12/05 03:35:17;;;;;;;76.07;9.18;;;;;;;;;;4993355;28;20030;-44
2022/12/05 03:37:55;;;;;;;71.03;8.95;;;;;;;;;;4993424;28;20025;-43
2022/12/05 03:40:34;;;;;;;56.10;7.63;;;;;;;;;;4993173;28;20038;-44
2022/12/05 03:43:08;;;;;;;38.40;5.55;;;;;;;;;;4993214;28;20038;-43
2022/12/05 03:45:55;;;;;;;43.30;6.05;;;;;;;;;;4993141;28;20049;-43
2022/12/05 03:48:32;;;;;;;36.08;4.97;;;;;;;;;;4993439;28;20548;-43
2022/12/05 03:51:00;;;;;;;41.67;4.57;;;;;;;;;;4993111;28;20034;-44
2022/12/05 03:53:29;;;;;;;28.35;4.05;;;;;;;;;;4993177;28;20034;-44
2022/12/05 03:55:59;;;;;;;36.13;3.92;;;;;;;;;;4993028;28;20030;-43
2022/12/05 03:58:33;;;;;;;25.13;3.20;;;;;;;;;;4993047;28;20100;-43
2022/12/05 04:01:01;;;;;;;25.73;3.47;;;;;;;;;;4992824;28;20030;-43
2022/12/05 04:03:40;;;;;;;19.27;3.33;;;;;;;;;;4992940;28;20046;-44
2022/12/05 04:06:12;;;;;;;28.10;3.00;;;;;;;;;;4992750;28;20435;-46
2022/12/05 04:08:45;;;;;;;19.73;2.85;;;;;;;;;;5007896;28;20029;-42
2022/12/05 04:11:15;;;;;;;27.80;3.83;;;;;;;;;;4992436;28;20105;-43
2022/12/05 04:13:48;;;;;;;29.40;3.53;;;;;;;;;;4992751;28;20052;-45
2022/12/05 04:19:05;;;;;;;19.95;2.55;;;;;;;;;;4992571;28;20522;-42
2022/12/05 04:21:39;;;;;;;17.75;2.15;;;;;;;;;;4992684;28;20026;-43
2022/12/05 04:27:22;;;;;;;13.85;2.10;;;;;;;;;;4992910;28;20455;-43
2022/12/05 04:29:55;;;;;;;22.05;2.92;;;;;;;;;;4992305;28;20045;-43
2022/12/05 04:32:23;;;;;;;19.85;2.58;;;;;;;;;;4992377;28;20058;-43
2022/12/05 04:34:55;;;;;;;21.33;3.17;;;;;;;;;;4992548;28;20058;-43
2022/12/05 04:37:25;;;;;;;19.30;2.17;;;;;;;;;;4992504;28;20037;-44
2022/12/05 04:39:58;;;;;;;18.52;2.85;;;;;;;;;;4992409;28;20030;-44
2022/12/05 04:42:27;;;;;;;18.13;2.35;;;;;;;;;;4992354;28;20560;-43
2022/12/05 04:44:55;;;;;;;17.45;2.30;;;;;;;;;;4992410;28;20034;-44
2022/12/05 04:47:27;;;;;;;15.13;1.90;;;;;;;;;;4992464;28;20057;-43
2022/12/05 04:49:55;;;;;;;19.90;2.10;;;;;;;;;;4992361;28;20521;-44
2022/12/05 04:52:23;;;;;;;18.98;2.10;;;;;;;;;;4992485;28;20031;-43
2022/12/05 04:54:50;;;;;;;13.90;2.00;;;;;;;;;;4992421;28;20046;-43
2022/12/05 04:57:24;;;;;;;13.52;1.42;;;;;;;;;;4992385;28;20065;-44
2022/12/05 04:59:54;;;;;;;12.95;1.63;;;;;;;;;;4992293;28;20026;-44
2022/12/05 05:02:47;;;;;;;9.60;1.35;;;;;;;;;;4992204;28;20046;-43
2022/12/05 05:05:16;;;;;;;10.40;1.50;;;;;;;;;;4991036;28;20053;-43
2022/12/05 05:07:44;;;;;;;9.55;1.00;;;;;;;;;;4992616;28;20393;-44
2022/12/05 05:10:12;;;;;;;8.68;1.10;;;;;;;;;;4992235;28;20030;-43
2022/12/05 05:12:38;;;;;;;10.07;1.20;;;;;;;;;;4992275;28;20018;-44
2022/12/05 05:15:06;;;;;;;12.27;1.10;;;;;;;;;;4992160;28;20038;-43
2022/12/05 05:17:33;;;;;;;10.27;1.00;;;;;;;;;;4992076;28;20030;-43
2022/12/05 05:20:42;;;;;;;9.65;1.00;;;;;;;;;;4991986;28;20500;-43
2022/12/05 05:22:50;;;;;;;9.90;1.10;;;;;;;;;;5000193;28;20058;-46
2022/12/05 05:25:18;;;;;;;9.07;1.00;;;;;;;;;;4995844;28;20072;-43
2022/12/05 05:27:48;;;;;;;17.08;1.13;;;;;;;;;;4995711;28;20031;-43
2022/12/05 05:30:16;;;;;;;14.57;1.35;;;;;;;;;;4995661;28;20042;-45
2022/12/05 05:32:43;;;;;;;12.68;1.08;;;;;;;;;;4995455;28;20050;-43
2022/12/05 05:35:10;;;;;;;9.75;1.23;;;;;;;;;;4995615;28;20052;-44
2022/12/05 05:37:37;;;;;;;11.27;0.85;;;;;;;;;;4995599;28;20038;-43
2022/12/05 05:40:06;;;;;;;9.30;1.15;;;;;;;;;;4995503;28;20038;-43
2022/12/05 05:42:33;;;;;;;16.35;1.17;;;;;;;;;;4995539;28;20113;-43
2022/12/05 05:45:00;;;;;;;17.23;1.40;;;;;;;;;;4995301;28;20069;-43
2022/12/05 05:47:27;;;;;;;11.35;1.15;;;;;;;;;;4995433;28;20105;-44
2022/12/05 05:49:54;;;;;;;5.88;1.00;;;;;;;;;;4995220;28;20072;-44
2022/12/05 05:52:21;;;;;;;15.30;1.60;;;;;;;;;;4995433;28;20076;-43
2022/12/05 05:54:48;;;;;;;15.18;1.55;;;;;;;;;;5010311;28;20452;-43
2022/12/05 05:57:14;;;;;;;13.45;1.27;;;;;;;;;;4995244;28;20066;-44
2022/12/05 05:59:41;;;;;;;13.93;1.52;;;;;;;;;;4995174;28;20507;-43
2022/12/05 06:02:08;;;;;;;17.00;1.77;;;;;;;;;;4993910;28;20034;-44
2022/12/05 06:04:35;;;;;;;18.27;1.80;;;;;;;;;;4995007;28;20049;-44
2022/12/05 06:07:02;;;;;;;15.85;1.70;;;;;;;;;;4995061;28;20038;-43
2022/12/05 06:09:29;;;;;;;13.60;1.50;;;;;;;;;;4994859;28;20396;-44
2022/12/05 06:11:56;;;;;;;16.42;1.38;;;;;;;;;;4994950;28;20042;-45
2022/12/05 06:14:23;;;;;;;18.38;1.75;;;;;;;;;;4994913;28;20392;-43
2022/12/05 06:16:50;;;;;;;8.15;1.38;;;;;;;;;;4994949;28;20551;-43
2022/12/05 06:19:17;;;;;;;17.20;1.70;;;;;;;;;;4994619;28;20110;-43
2022/12/05 06:21:44;;;;;;;15.43;1.63;;;;;;;;;;4994876;28;20026;-44
2022/12/05 06:24:11;;;;;;;16.75;1.80;;;;;;;;;;4994603;28;20065;-45
2022/12/05 06:26:38;;;;;;;17.40;1.90;;;;;;;;;;4994813;28;20038;-43
2022/12/05 06:29:05;;;;;;;12.50;1.92;;;;;;;;;;4994549;28;20381;-43
2022/12/05 06:31:32;;;;;;;11.85;2.08;;;;;;;;;;4994411;28;20031;-43
2022/12/05 06:34:01;;;;;;;9.55;1.55;;;;;;;;;;4994295;28;20038;-44
2022/12/05 06:36:28;;;;;;;14.07;1.55;;;;;;;;;;4994494;28;20041;-44
2022/12/05 06:38:59;;;;;;;24.23;1.70;;;;;;;;;;4994384;28;20384;-43
2022/12/05 06:41:26;;;;;;;17.83;2.42;;;;;;;;;;4994423;28;20033;-43
2022/12/05 06:43:54;;;;;;;17.15;1.88;;;;;;;;;;4994226;28;20022;-43
2022/12/05 06:46:22;;;;;;;14.93;1.98;;;;;;;;;;4994379;28;20052;-44
2022/12/05 06:48:49;;;;;;;16.15;1.60;;;;;;;;;;4994136;28;20186;-43
2022/12/05 06:51:16;;;;;;;13.05;1.60;;;;;;;;;;4994233;28;20113;-43
2022/12/05 06:53:44;;;;;;;13.45;2.33;;;;;;;;;;4994232;28;20038;-43
2022/12/05 06:56:12;;;;;;;13.15;2.03;;;;;;;;;;4994150;28;20420;-43
2022/12/05 06:58:40;;;;;;;17.27;1.80;;;;;;;;;;4994075;28;20026;-43
2022/12/05 07:03:55;;;;;;;15.25;1.73;;;;;;;;;;4994207;28;20053;-44
2022/12/05 07:06:22;;;;;;;12.32;1.88;;;;;;;;;;4993957;28;20404;-45
2022/12/05 07:08:49;;;;;;;14.52;1.85;;;;;;;;;;4993826;28;20033;-44
2022/12/05 07:11:16;;;;;;;8.52;1.65;;;;;;;;;;4994201;28;20113;-43
2022/12/05 07:13:43;;;;;;;9.82;1.92;;;;;;;;;;4993762;28;20030;-43
2022/12/05 07:16:10;;;;;;;16.00;1.88;;;;;;;;;;4994114;28;20023;-43
2022/12/05 07:21:47;;;;;;;14.63;2.00;;;;;;;;;;4995281;28;20029;-44
2022/12/05 07:24:14;;;;;;;18.45;1.95;;;;;;;;;;4993384;28;20030;-43
2022/12/05 07:26:41;;;;;;;18.13;1.92;;;;;;;;;;4993628;28;20042;-44
2022/12/05 07:29:10;;;;;;;12.20;2.03;;;;;;;;;;4992150;28;20500;-43
2022/12/05 07:31:36;;;;;;;13.73;2.13;;;;;;;;;;4993140;28;20066;-44
2022/12/05 07:34:03;;;;;;;13.65;1.55;;;;;;;;;;4993393;28;20113;-44
2022/12/05 07:36:31;;;;;;;13.88;1.52;;;;;;;;;;4993357;28;20062;-43
2022/12/05 07:38:59;;;;;;;13.85;1.90;;;;;;;;;;4993277;28;20109;-44
2022/12/05 07:41:27;;;;;;;13.60;1.40;;;;;;;;;;4993368;28;20030;-44
2022/12/05 07:43:54;;;;;;;13.82;1.90;;;;;;;;;;4993238;28;20053;-44
2022/12/05 07:46:22;;;;;;;17.25;2.28;;;;;;;;;;4992417;28;20114;-44
2022/12/05 07:48:50;;;;;;;14.85;1.60;;;;;;;;;;4993112;28;20441;-44
2022/12/05 07:51:17;;;;;;;11.57;1.80;;;;;;;;;;4993140;28;20033;-44
2022/12/05 07:53:45;;;;;;;13.98;2.00;;;;;;;;;;4993184;28;20092;-44
2022/12/05 07:56:15;;;;;;;18.35;2.20;;;;;;;;;;4993085;28;20022;-44
2022/12/05 07:58:43;;;;;;;16.67;2.15;;;;;;;;;;4992833;28;20488;-44
2022/12/05 08:01:11;;;;;;;18.17;2.33;;;;;;;;;;4993084;28;20491;-44
2022/12/05 08:03:38;;;;;;;13.10;2.05;;;;;;;;;;4992942;28;20036;-44
2022/12/05 08:06:06;;;;;;;12.20;2.25;;;;;;;;;;4992860;28;20511;-44
2022/12/05 08:08:34;;;;;;;16.60;1.98;;;;;;;;;;4992819;28;20596;-44
2022/12/05 08:11:09;;;;;;;18.70;2.08;;;;;;;;;;4992730;28;20369;-44
2022/12/05 08:13:36;;;;;;;15.23;1.85;;;;;;;;;;4992870;28;20023;-43
2022/12/05 08:16:04;;;;;;;14.32;2.15;;;;;;;;;;4992837;28;20397;-44
2022/12/05 08:18:31;;;;;;;14.43;2.08;;;;;;;;;;4992688;28;20033;-46
2022/12/05 08:21:05;;;;;;;9.13;1.90;;;;;;;;;;4992611;28;20022;-45
2022/12/05 08:23:32;;;;;;;14.52;1.75;;;;;;;;;;4992613;28;20045;-44
2022/12/05 08:26:06;;;;;;;15.18;2.28;;;;;;;;;;4992633;28;20481;-44
2022/12/05 08:28:33;;;;;;;23.48;2.33;;;;;;;;;;4992720;28;20488;-44
2022/12/05 08:31:04;;;;;;;15.25;2.10;;;;;;;;;;4992586;28;20022;-44
2022/12/05 08:33:31;;;;;;;18.73;2.58;;;;;;;;;;4992274;28;20104;-43
2022/12/05 08:36:01;;;;;;;14.55;2.53;;;;;;;;;;4992634;28;20030;-44
2022/12/05 08:38:28;;;;;;;14.05;2.13;;;;;;;;;;4992629;28;20030;-43
2022/12/05 08:40:55;;;;;;;19.00;2.20;;;;;;;;;;4992395;28;20396;-44
2022/12/05 08:43:22;;;;;;;14.88;2.40;;;;;;;;;;4992479;28;20030;-43
2022/12/05 08:45:52;;;;;;;31.58;4.35;;;;;;;;;;4992615;28;20030;-46
2022/12/05 08:48:19;;;;;;;24.17;3.28;;;;;;;;;;4992531;28;20022;-44
2022/12/05 08:50:46;;;;;;;20.23;3.08;;;;;;;;;;4992422;28;20488;-44
2022/12/05 08:53:13;;;;;;;18.15;2.95;;;;;;;;;;4992385;28;20022;-43
2022/12/05 08:55:40;;;;;;;21.27;3.17;;;;;;;;;;4992492;28;20105;-44
2022/12/05 08:58:07;;;;;;;19.08;2.95;;;;;;;;;;4995988;28;20510;-44
2022/12/05 09:00:34;;;;;;;22.90;3.05;;;;;;;;;;4996145;28;20030;-47
2022/12/05 09:03:01;;;;;;;17.42;2.55;;;;;;;;;;4996336;28;20050;-44
2022/12/05 09:05:28;;;;;;;40.47;3.50;;;;;;;;;;4996122;28;20089;-45
2022/12/05 09:07:55;;;;;;;30.65;3.97;;;;;;;;;;4996249;28;20439;-44
2022/12/05 09:10:23;;;;;;;24.50;2.88;;;;;;;;;;4996126;28;20369;-44
2022/12/05 09:12:50;;;;;;;20.67;3.03;;;;;;;;;;4996036;28;20053;-44
2022/12/05 09:15:17;;;;;;;21.02;2.53;;;;;;;;;;4996063;28;20038;-44
2022/12/05 09:17:44;;;;;;;19.75;3.00;;;;;;;;;;4996001;28;20476;-43
2022/12/05 09:20:12;;;;;;;27.63;3.15;;;;;;;;;;4995968;28;20084;-43
2022/12/05 09:22:40;;;;;;;35.08;3.45;;;;;;;;;;4995831;28;20037;-44
2022/12/05 09:25:08;;;;;;;31.10;3.42;;;;;;;;;;4995821;28;20030;-44
2022/12/05 09:27:35;;;;;;;22.95;3.17;;;;;;;;;;4995852;28;20030;-45
2022/12/05 09:30:02;;;;;;;24.80;3.25;;;;;;;;;;4994404;28;20444;-44
2022/12/05 09:32:29;;;;;;;31.90;3.50;;;;;;;;;;4995628;28;20137;-45
2022/12/05 09:34:55;;;;;;;25.40;2.97;;;;;;;;;;4995568;28;20044;-44
2022/12/05 09:37:22;;;;;;;21.52;2.97;;;;;;;;;;4995658;28;20109;-44
2022/12/05 09:39:49;;;;;;;36.80;3.95;;;;;;;;;;4995560;28;20549;-44
2022/12/05 09:42:26;;;;;;;31.92;3.78;;;;;;;;;;4995535;28;20053;-44
2022/12/05 09:44:53;;;;;;;21.95;3.65;;;;;;;;;;4994218;28;20745;-44
2022/12/05 09:47:23;;;;;;;34.53;3.85;;;;;;;;;;4995397;28;20038;-43
2022/12/05 09:49:56;;;;;;;25.38;3.78;;;;;;;;;;4995527;28;20041;-43
2022/12/05 09:52:27;;;;;;;41.28;5.22;;;;;;;;;;4995265;28;20031;-44
2022/12/05 09:54:54;;;;;;;45.72;5.75;;;;;;;;;;4995453;28;20134;-44
2022/12/05 09:57:27;;;;;;;54.72;6.85;;;;;;;;;;4995311;28;20030;-45
2022/12/05 09:59:54;;;;;;;53.70;5.45;;;;;;;;;;4995191;28;20428;-44
2022/12/05 10:02:32;;;;;;;41.92;6.03;;;;;;;;;;4995112;28;20023;-43
2022/12/05 10:05:04;;;;;;;56.65;5.78;;;;;;;;;;4995048;28;20142;-44
2022/12/05 10:10:44;;;;;;;50.33;5.88;;;;;;;;;;4970582;27;2994842;-50
2022/12/05 10:13:17;;;;;;;48.58;6.10;;;;;;;;;;5088889;28;20036;-49
2022/12/05 10:15:44;;;;;;;99.47;11.05;;;;;;;;;;5089350;28;20024;-47
2022/12/05 10:18:16;;;;;;;62.90;7.32;;;;;;;;;;5089390;28;20398;-43
2022/12/05 10:20:43;;;;;;;128.02;13.90;;;;;;;;;;5089124;28;20040;-43
2022/12/05 10:23:36;;;;;;;69.60;7.72;;;;;;;;;;5088993;28;20059;-43
2022/12/05 10:26:05;;;;;;;76.68;8.65;;;;;;;;;;5058419;28;20062;-44
2022/12/05 10:28:42;;;;;;;94.60;9.43;;;;;;;;;;5088883;28;20021;-43
2022/12/05 10:31:11;;;;;;;83.78;8.95;;;;;;;;;;5088931;28;20051;-44
2022/12/05 10:33:41;;;;;;;74.82;9.02;;;;;;;;;;5088507;28;20485;-41
2022/12/05 10:36:17;;;;;;;87.45;9.75;;;;;;;;;;5088822;28;20500;-44
2022/12/05 10:38:45;;;;;;;80.65;9.48;;;;;;;;;;5088904;28;20081;-44
2022/12/05 10:41:13;;;;;;;187.10;17.48;;;;;;;;;;5088791;28;20112;-45
2022/12/05 10:43:42;;;;;;;107.15;13.00;;;;;;;;;;5088815;28;20505;-43
2022/12/05 10:46:10;;;;;;;109.03;10.43;;;;;;;;;;5088835;28;20036;-42
2022/12/05 10:48:38;;;;;;;77.53;9.65;;;;;;;;;;5088588;28;20037;-46
2022/12/05 10:51:06;;;;;;;73.13;8.40;;;;;;;;;;5088570;28;20389;-42
2022/12/05 10:53:53;;;;;;;84.35;9.45;;;;;;;;;;5088464;28;20040;-42
2022/12/05 10:56:39;;;;;;;80.57;9.35;;;;;;;;;;5088892;28;20427;-43
2022/12/05 10:59:11;;;;;;;81.78;9.38;;;;;;;;;;5083421;28;20024;-44
2022/12/05 11:01:38;;;;;;;77.40;8.53;;;;;;;;;;5087653;28;20035;-44
2022/12/05 11:04:24;;;;;;;68.55;8.05;;;;;;;;;;5087942;28;20032;-44
2022/12/05 11:06:52;;;;;;;62.05;7.65;;;;;;;;;;5087609;28;20056;-44
2022/12/05 11:09:21;;;;;;;70.18;8.93;;;;;;;;;;5087413;28;20039;-44
2022/12/05 11:12:06;;;;;;;79.32;8.98;;;;;;;;;;5088009;28;20500;-42
2022/12/05 11:14:35;;;;;;;67.13;9.32;;;;;;;;;;5088001;28;20038;-42
2022/12/05 11:17:02;;;;;;;76.07;8.50;;;;;;;;;;5087020;28;20111;-43
2022/12/05 11:19:29;;;;;;;70.88;8.38;;;;;;;;;;5087132;28;20039;-50
2022/12/05 11:21:56;;;;;;;63.35;7.50;;;;;;;;;;5073461;28;20037;-44
2022/12/05 11:24:31;;;;;;;60.38;6.85;;;;;;;;;;5073879;28;20039;-42
2022/12/05 11:26:59;;;;;;;60.35;7.22;;;;;;;;;;5073616;28;20036;-42
2022/12/05 11:29:29;;;;;;;72.90;8.80;;;;;;;;;;5073531;28;20402;-43
2022/12/05 11:31:56;;;;;;;69.82;7.93;;;;;;;;;;5073490;28;20028;-43
2022/12/05 11:34:26;;;;;;;70.78;7.78;;;;;;;;;;5074281;28;20032;-47
2022/12/05 11:37:03;;;;;;;54.80;6.85;;;;;;;;;;5073261;28;20486;-44
2022/12/05 11:39:30;;;;;;;64.90;8.00;;;;;;;;;;5074103;28;20032;-47
2022/12/05 11:41:57;;;;;;;75.32;7.78;;;;;;;;;;5073392;28;20039;-44
2022/12/05 11:44:42;;;;;;;64.57;6.70;;;;;;;;;;5073741;28;20103;-44
2022/12/05 11:47:12;;;;;;;43.25;5.72;;;;;;;;;;5073442;28;20430;-46
2022/12/05 11:49:50;;;;;;;46.78;5.95;;;;;;;;;;5073950;28;20048;-46
2022/12/05 11:52:23;;;;;;;54.47;6.82;;;;;;;;;;5073038;28;20041;-44
2022/12/05 11:54:50;;;;;;;64.90;7.13;;;;;;;;;;5073806;28;20098;-45
2022/12/05 11:57:19;;;;;;;58.45;7.35;;;;;;;;;;5073192;28;20487;-42
2022/12/05 11:59:46;;;;;;;55.10;7.10;;;;;;;;;;5073420;28;20028;-44
2022/12/05 12:02:40;;;;;;;59.08;7.45;;;;;;;;;;5073092;28;20040;-47
2022/12/05 12:05:35;;;;;;;64.35;7.55;;;;;;;;;;5073733;28;20024;-42
2022/12/05 12:08:02;;;;;;;59.97;7.97;;;;;;;;;;5073746;28;20043;-45
2022/12/05 12:10:36;;;;;;;67.63;8.25;;;;;;;;;;5072962;28;20059;-42
2022/12/05 12:13:09;;;;;;;53.95;7.22;;;;;;;;;;5072637;28;20032;-43
2022/12/05 12:15:36;;;;;;;55.78;7.03;;;;;;;;;;5072936;28;20056;-44
2022/12/05 12:18:09;;;;;;;60.53;7.53;;;;;;;;;;5072945;28;20454;-43
2022/12/05 12:20:42;;;;;;;64.97;7.63;;;;;;;;;;5073270;28;20040;-45
2022/12/05 12:23:32;;;;;;;42.38;5.63;;;;;;;;;;5073175;28;20040;-49
2022/12/05 12:25:59;;;;;;;46.22;6.55;;;;;;;;;;5046627;28;20041;-45
2022/12/05 12:28:35;;;;;;;59.25;7.53;;;;;;;;;;5057066;28;20549;-43
2022/12/05 12:31:11;;;;;;;58.13;7.22;;;;;;;;;;5072886;28;20037;-44
2022/12/05 12:33:52;;;;;;;50.72;5.47;;;;;;;;;;5072377;28;20381;-43
2022/12/05 12:36:22;;;;;;;53.83;6.40;;;;;;;;;;5071786;28;20024;-43
2022/12/05 12:38:52;;;;;;;48.33;5.93;;;;;;;;;;5072612;28;20025;-44
2022/12/05 12:41:29;;;;;;;45.72;5.78;;;;;;;;;;5072649;28;20032;-45
2022/12/05 12:43:56;;;;;;;49.05;5.55;;;;;;;;;;5072860;28;20062;-51
2022/12/05 12:46:41;;;;;;;55.17;6.50;;;;;;;;;;5071182;28;20112;-47
2022/12/05 12:49:09;;;;;;;62.80;7.25;;;;;;;;;;5072762;28;20139;-47
2022/12/05 12:51:40;;;;;;;55.28;7.50;;;;;;;;;;5072676;28;20043;-46
2022/12/05 12:54:07;;;;;;;49.42;7.18;;;;;;;;;;5072496;28;20036;-43
2022/12/05 12:56:39;;;;;;;46.75;6.45;;;;;;;;;;5070863;28;20036;-44
2022/12/05 12:59:24;;;;;;;59.42;7.25;;;;;;;;;;5072591;28;20541;-47
2022/12/05 13:01:58;;;;;;;48.15;6.88;;;;;;;;;;5072333;28;20089;-46
2022/12/05 13:04:28;;;;;;;47.15;7.25;;;;;;;;;;5072102;28;20413;-45
2022/12/05 13:07:06;;;;;;;50.75;7.20;;;;;;;;;;5070788;28;20032;-49
2022/12/05 13:09:58;;;;;;;47.85;6.63;;;;;;;;;;5072319;28;20032;-46
2022/12/05 13:12:28;;;;;;;48.58;6.95;;;;;;;;;;5034423;28;20569;-49
2022/12/05 13:15:06;;;;;;;50.25;6.10;;;;;;;;;;5072455;28;20021;-47
2022/12/05 13:17:33;;;;;;;45.88;6.70;;;;;;;;;;5070845;28;20064;-45
2022/12/05 13:20:00;;;;;;;55.80;6.70;;;;;;;;;;5072083;28;20021;-45
2022/12/05 13:22:28;;;;;;;42.88;6.03;;;;;;;;;;5071858;28;20036;-45
2022/12/05 13:24:55;;;;;;;56.38;7.80;;;;;;;;;;5071846;28;20028;-44
2022/12/05 13:27:26;;;;;;;53.08;7.13;;;;;;;;;;5070738;28;20771;-45
2022/12/05 13:29:55;;;;;;;43.88;7.03;;;;;;;;;;5071687;28;20412;-44
2022/12/05 13:32:35;;;;;;;58.47;6.80;;;;;;;;;;5072197;28;20035;-43
2022/12/05 13:44:10;;;;;;;41.50;6.35;;;;;;;;;;5071253;28;20048;-45
2022/12/05 13:46:39;;;;;;;44.78;6.25;;;;;;;;;;5071288;28;20039;-47
2022/12/05 13:49:24;;;;;;;43.90;6.38;;;;;;;;;;5070522;28;20477;-46
2022/12/05 13:51:51;;;;;;;44.22;6.43;;;;;;;;;;5071540;28;20386;-43
2022/12/05 13:54:25;;;;;;;51.92;6.47;;;;;;;;;;5071706;28;20126;-46
2022/12/05 13:57:04;;;;;;;48.58;6.68;;;;;;;;;;5070189;28;20036;-45
2022/12/05 13:59:49;;;;;;;57.70;6.63;;;;;;;;;;5070899;28;20598;-51
2022/12/05 14:02:45;;;;;;;60.33;7.75;;;;;;;;;;5071628;28;20033;-47
2022/12/05 14:05:18;;;;;;;61.83;7.18;;;;;;;;;;5051140;28;20102;-46
2022/12/05 14:07:45;;;;;;;60.60;7.32;;;;;;;;;;5070872;28;20052;-45
2022/12/05 14:10:15;;;;;;;55.08;8.45;;;;;;;;;;5070479;28;20127;-49
2022/12/05 14:12:56;;;;;;;48.65;7.95;;;;;;;;;;5070606;28;20032;-49
2022/12/05 14:15:30;;;;;;;47.90;7.63;;;;;;;;;;5071051;28;20500;-47
2022/12/05 14:18:07;;;;;;;68.85;7.40;;;;;;;;;;5071410;28;20115;-47
2022/12/05 14:20:49;;;;;;;73.57;8.60;;;;;;;;;;5070604;28;20115;-51
2022/12/05 14:23:16;;;;;;;65.45;8.15;;;;;;;;;;5070073;28;20033;-55
2022/12/05 14:25:50;;;;;;;56.30;8.38;;;;;;;;;;5070427;28;20525;-51
2022/12/05 14:28:26;;;;;;;63.45;8.35;;;;;;;;;;5052401;28;20029;-54
2022/12/05 14:31:05;;;;;;;66.45;8.40;;;;;;;;;;5070901;28;20043;-50
2022/12/05 14:33:32;;;;;;;87.13;10.18;;;;;;;;;;5068737;28;20036;-48
2022/12/05 14:36:05;;;;;;;96.03;10.05;;;;;;;;;;5070379;28;20032;-51
2022/12/05 14:38:35;;;;;;;103.35;12.02;;;;;;;;;;5071323;28;20033;-49
2022/12/05 14:41:17;;;;;;;86.60;10.85;;;;;;;;;;5070822;28;20036;-48
2022/12/05 14:43:44;;;;;;;82.38;10.45;;;;;;;;;;5059132;28;20053;-48
2022/12/05 14:46:19;;;;;;;92.85;11.98;;;;;;;;;;5049866;28;20037;-46
2022/12/05 14:48:48;;;;;;;81.68;11.35;;;;;;;;;;5050723;28;20448;-52
2022/12/05 14:51:30;;;;;;;97.53;11.50;;;;;;;;;;5049392;28;20791;-49
2022/12/05 14:54:03;;;;;;;87.68;12.07;;;;;;;;;;5051459;28;20045;-48
2022/12/05 14:56:32;;;;;;;103.55;12.52;;;;;;;;;;5072104;28;20481;-46
2022/12/05 14:59:03;;;;;;;118.05;12.38;;;;;;;;;;5074277;28;20029;-51
2022/12/05 15:01:35;;;;;;;95.30;12.50;;;;;;;;;;5074290;28;20489;-47
2022/12/05 15:04:20;;;;;;;104.13;12.52;;;;;;;;;;5073518;28;20496;-47
2022/12/05 15:06:50;;;;;;;99.85;12.07;;;;;;;;;;5073685;28;20031;-49
2022/12/05 15:09:29;;;;;;;100.82;12.90;;;;;;;;;;5073765;28;20028;-47
2022/12/05 15:11:56;;;;;;;104.47;13.23;;;;;;;;;;5073748;28;20048;-47